Palessa — V2IA7 — position and weather

sailwx.info

Track history (hours):
 
Tides and Currents Weather Stations Pressure Air Temp Water Temp Dewpoint Dewpoint Depression Visibility Wind Speed Wind Dir Waves Ship Positions

Palessa

Last reported at 2014-Sep-16 02:26 UTC. Time now 2014-Sep-22 14:11 UTC.
Position N 42°16' E 010°40'.

Length 118 m; draft 5.4 m.

Type: Cargo ship. MMSI: 304255000.

Date/timePositionNaut miles runAvg speedWind from/ knotsBaromVisibWave heightAir tempDewpointWater temp
2014-Sep-16 02:26N 42°16' E 010°40'1613.3
2014-Sep-16 01:12N 42°28' E 010°25'913.1
2014-Sep-16 00:31N 42°34' E 010°16'2612.9
2014-Sep-15 22:32N 42°51' E 009°50'2611.3
2014-Sep-15 20:16N 43°16' E 009°42'912.5
2014-Sep-15 19:34N 43°25' E 009°43'1212.3
2014-Sep-15 18:33N 43°37' E 009°48'1313.0
2014-Sep-15 17:33N 43°48' E 009°55'1313.1
2014-Sep-15 16:34N 44°00' E 010°03'2 1.7
2014-Sep-15 15:29N 44°02' E 010°03'0 0.0
2014-Sep-15 14:29N 44°02' E 010°03'0 0.0
2014-Sep-15 13:05N 44°02' E 010°03'0 0.0
2014-Sep-15 12:29N 44°02' E 010°03'0 0.0
2014-Sep-15 11:23N 44°02' E 010°03'0 0.0
2014-Sep-15 10:26N 44°02' E 010°03'0 0.0
2014-Sep-15 09:23N 44°02' E 010°03'0 0.0
2014-Sep-15 08:32N 44°02' E 010°03'0 0.0
2014-Sep-15 07:32N 44°02' E 010°03'0 0.0
2014-Sep-15 06:29N 44°02' E 010°03'0 0.0
2014-Sep-15 05:23N 44°02' E 010°03'0 0.0
2014-Sep-15 04:29N 44°02' E 010°03'0 0.0
2014-Sep-14 21:29N 44°02' E 010°03'0 0.0
2014-Sep-14 17:20N 44°02' E 010°03'0 0.0
2014-Sep-14 10:23N 44°02' E 010°03'0 0.0
2014-Sep-14 07:14N 44°02' E 010°03'0 0.0
2014-Sep-13 10:33N 44°02' E 010°02'9 8.9
2014-Sep-13 09:34N 43°54' E 009°56'1313.0
2014-Sep-13 08:33N 43°45' E 009°44'1313.2
2014-Sep-13 07:33N 43°35' E 009°31'7413.4
2014-Sep-13 02:05N 42°41' E 008°22'713.5
2014-Sep-13 01:33N 42°36' E 008°16'24612.7
2014-Sep-12 06:09N 39°39' E 004°29'812.9
2014-Sep-12 05:32N 39°35' E 004°20'1312.8
2014-Sep-12 04:32N 39°29' E 004°05'1212.7
2014-Sep-12 03:33N 39°23' E 003°51'1312.5
2014-Sep-12 02:33N 39°16' E 003°37'1312.6
2014-Sep-12 01:34N 39°10' E 003°23'1312.7
2014-Sep-12 00:33N 39°04' E 003°09'1312.6
2014-Sep-11 23:33N 38°58' E 002°55'1312.7
2014-Sep-11 22:33N 38°51' E 002°41'1312.7
2014-Sep-11 21:33N 38°44' E 002°28'1312.9
2014-Sep-11 20:33N 38°37' E 002°14'1413.1
2014-Sep-11 19:31N 38°29' E 001°59'1212.8
2014-Sep-11 18:32N 38°23' E 001°46'1313.0
2014-Sep-11 17:32N 38°16' E 001°32'1312.5
2014-Sep-11 16:31N 38°09' E 001°18'1512.9
2014-Sep-11 15:20N 38°01' E 001°02'1012.9
2014-Sep-11 14:33N 37°55' E 000°51'1313.1
2014-Sep-11 13:33N 37°48' E 000°37'1312.7
2014-Sep-11 12:33N 37°41' E 000°24'1312.8
2014-Sep-11 11:33N 37°34' E 000°10'1312.5
2014-Sep-11 10:33N 37°27' W 000°03'1212.5
2014-Sep-11 09:33N 37°21' W 000°17'1312.7
2014-Sep-11 08:33N 37°14' W 000°30'1312.7
2014-Sep-11 07:33N 37°07' W 000°43'2712.8
2014-Sep-11 05:27N 36°52' W 001°12'211 8.8
2014-Sep-10 05:28N 35°59' W 005°25'  
2014-Sep-06 20:33N 49°27' W 004°21'1514.7
2014-Sep-06 19:33N 49°34' W 004°01'14212.9
2014-Sep-06 08:32N 49°35' W 000°22'1212.3
2014-Sep-06 07:33N 49°31' W 000°05'1010.3
2014-Sep-06 06:33N 49°29' E 000°10'0 0.3
2014-Sep-06 05:30N 49°29' E 000°11'0 0.0
2014-Sep-06 04:33N 49°29' E 000°11'0 0.0
2014-Sep-06 03:33N 49°29' E 000°11'0 0.0
2014-Sep-06 02:33N 49°29' E 000°11'  
Track history (hours):
 
Tides and Currents Weather Stations Pressure Air Temp Water Temp Dewpoint Dewpoint Depression Visibility Wind Speed Wind Dir Waves Ship Positions

Palessa

Last reported at 2014-Sep-16 02:26 UTC. Time now 2014-Sep-22 14:11 UTC.
Position N 42°16' E 010°40'.

Length 118 m; draft 5.4 m.

Type: Cargo ship. MMSI: 304255000.

Date/timePositionNaut miles runAvg speedWind from/ knotsBaromVisibWave heightAir tempDewpointWater temp
2014-Sep-16 02:26N 42°16' E 010°40'1613.3
2014-Sep-16 01:12N 42°28' E 010°25'913.1
2014-Sep-16 00:31N 42°34' E 010°16'2612.9
2014-Sep-15 22:32N 42°51' E 009°50'2611.3
2014-Sep-15 20:16N 43°16' E 009°42'912.5
2014-Sep-15 19:34N 43°25' E 009°43'1212.3
2014-Sep-15 18:33N 43°37' E 009°48'1313.0
2014-Sep-15 17:33N 43°48' E 009°55'1313.1
2014-Sep-15 16:34N 44°00' E 010°03'2 1.7
2014-Sep-15 15:29N 44°02' E 010°03'0 0.0
2014-Sep-15 14:29N 44°02' E 010°03'0 0.0
2014-Sep-15 13:05N 44°02' E 010°03'0 0.0
2014-Sep-15 12:29N 44°02' E 010°03'0 0.0
2014-Sep-15 11:23N 44°02' E 010°03'0 0.0
2014-Sep-15 10:26N 44°02' E 010°03'0 0.0
2014-Sep-15 09:23N 44°02' E 010°03'0 0.0
2014-Sep-15 08:32N 44°02' E 010°03'0 0.0
2014-Sep-15 07:32N 44°02' E 010°03'0 0.0
2014-Sep-15 06:29N 44°02' E 010°03'0 0.0
2014-Sep-15 05:23N 44°02' E 010°03'0 0.0
2014-Sep-15 04:29N 44°02' E 010°03'0 0.0
2014-Sep-14 21:29N 44°02' E 010°03'0 0.0
2014-Sep-14 17:20N 44°02' E 010°03'0 0.0
2014-Sep-14 10:23N 44°02' E 010°03'0 0.0
2014-Sep-14 07:14N 44°02' E 010°03'0 0.0
2014-Sep-13 10:33N 44°02' E 010°02'9 8.9
2014-Sep-13 09:34N 43°54' E 009°56'1313.0
2014-Sep-13 08:33N 43°45' E 009°44'1313.2
2014-Sep-13 07:33N 43°35' E 009°31'7413.4
2014-Sep-13 02:05N 42°41' E 008°22'713.5
2014-Sep-13 01:33N 42°36' E 008°16'24612.7
2014-Sep-12 06:09N 39°39' E 004°29'812.9
2014-Sep-12 05:32N 39°35' E 004°20'1312.8
2014-Sep-12 04:32N 39°29' E 004°05'1212.7
2014-Sep-12 03:33N 39°23' E 003°51'1312.5
2014-Sep-12 02:33N 39°16' E 003°37'1312.6
2014-Sep-12 01:34N 39°10' E 003°23'1312.7
2014-Sep-12 00:33N 39°04' E 003°09'1312.6
2014-Sep-11 23:33N 38°58' E 002°55'1312.7
2014-Sep-11 22:33N 38°51' E 002°41'1312.7
2014-Sep-11 21:33N 38°44' E 002°28'1312.9
2014-Sep-11 20:33N 38°37' E 002°14'1413.1
2014-Sep-11 19:31N 38°29' E 001°59'1212.8
2014-Sep-11 18:32N 38°23' E 001°46'1313.0
2014-Sep-11 17:32N 38°16' E 001°32'1312.5
2014-Sep-11 16:31N 38°09' E 001°18'1512.9
2014-Sep-11 15:20N 38°01' E 001°02'1012.9
2014-Sep-11 14:33N 37°55' E 000°51'1313.1
2014-Sep-11 13:33N 37°48' E 000°37'1312.7
2014-Sep-11 12:33N 37°41' E 000°24'1312.8
2014-Sep-11 11:33N 37°34' E 000°10'1312.5
2014-Sep-11 10:33N 37°27' W 000°03'1212.5
2014-Sep-11 09:33N 37°21' W 000°17'1312.7
2014-Sep-11 08:33N 37°14' W 000°30'1312.7
2014-Sep-11 07:33N 37°07' W 000°43'2712.8
2014-Sep-11 05:27N 36°52' W 001°12'211 8.8
2014-Sep-10 05:28N 35°59' W 005°25'  
2014-Sep-06 20:33N 49°27' W 004°21'1514.7
2014-Sep-06 19:33N 49°34' W 004°01'14212.9
2014-Sep-06 08:32N 49°35' W 000°22'1212.3
2014-Sep-06 07:33N 49°31' W 000°05'1010.3
2014-Sep-06 06:33N 49°29' E 000°10'0 0.3
2014-Sep-06 05:30N 49°29' E 000°11'0 0.0
2014-Sep-06 04:33N 49°29' E 000°11'0 0.0
2014-Sep-06 03:33N 49°29' E 000°11'0 0.0
2014-Sep-06 02:33N 49°29' E 000°11'  

Dump ship's entire track history